SWR81N LTFD-OIIP
Flight info
| Callsign | SWR81N |
|---|---|
| Flight time | 2h 46m |
| Altitude | 35000 |
| Route | DUGLA1M DUGLA UN131 KULAR UT54 HAY UT243 GEM UL614 EZS UT36 ASPUL/N0460F370 UT36 ALRAM G208 GETOB/N0427F270 G208 GOLNU DCT PIM DCT |
| Aircraft | A321/M-SDE3FGHIRWY/LB1 |
Departure
| Time | 2026-05-07 15:50 |
|---|---|
| Airport | Balıkesir Koca Seyit Airport (LTFD) |
Arrival
| Time | 2026-05-07 18:36 |
|---|---|
| Airport | Payam International Airport (OIIP) |
| Time | Latitude | Longitude | Altitude | Speed | Heading |
|---|---|---|---|---|---|
| 2026-05-07 14:57 | 39.54904 | 27.01118 | 51 ft | 0 kts | 144° |
| 2026-05-07 15:37 | 39.54905 | 27.01117 | 51 ft | 1 kts | 144° |
| 2026-05-07 15:37 | 39.54924 | 27.01100 | 51 ft | 2 kts | 144° |
| 2026-05-07 15:38 | 39.54939 | 27.01082 | 51 ft | 4 kts | 104° |
| 2026-05-07 15:38 | 39.54936 | 27.01055 | 49 ft | 3 kts | 54° |
| 2026-05-07 15:38 | 39.54922 | 27.01030 | 51 ft | 1 kts | 54° |
| 2026-05-07 15:38 | 39.54921 | 27.01029 | 51 ft | 0 kts | 54° |
| 2026-05-07 15:42 | 39.54924 | 27.01033 | 47 ft | 1 kts | 54° |
| 2026-05-07 15:43 | 39.54930 | 27.01044 | 49 ft | 2 kts | 54° |
| 2026-05-07 15:43 | 39.54940 | 27.01063 | 51 ft | 3 kts | 54° |
| 2026-05-07 15:43 | 39.54955 | 27.01088 | 51 ft | 4 kts | 51° |
| 2026-05-07 15:43 | 39.54979 | 27.01101 | 51 ft | 4 kts | 6° |
| 2026-05-07 15:44 | 39.55007 | 27.01089 | 50 ft | 5 kts | 330° |
| 2026-05-07 15:44 | 39.55040 | 27.01059 | 49 ft | 9 kts | 325° |
| 2026-05-07 15:44 | 39.55097 | 27.01008 | 48 ft | 11 kts | 325° |
| 2026-05-07 15:44 | 39.55154 | 27.00954 | 48 ft | 10 kts | 324° |
| 2026-05-07 15:45 | 39.55205 | 27.00962 | 50 ft | 6 kts | 43° |
| 2026-05-07 15:45 | 39.55227 | 27.01001 | 51 ft | 5 kts | 53° |
| 2026-05-07 15:45 | 39.55254 | 27.01047 | 52 ft | 8 kts | 53° |
| 2026-05-07 15:45 | 39.55292 | 27.01113 | 53 ft | 11 kts | 53° |
| 2026-05-07 15:46 | 39.55422 | 27.01343 | 56 ft | 19 kts | 53° |
| 2026-05-07 15:46 | 39.55506 | 27.01488 | 52 ft | 21 kts | 53° |
| 2026-05-07 15:46 | 39.55596 | 27.01647 | 52 ft | 22 kts | 53° |
| 2026-05-07 15:47 | 39.55692 | 27.01817 | 51 ft | 24 kts | 54° |
| 2026-05-07 15:47 | 39.55788 | 27.01986 | 54 ft | 23 kts | 53° |
| 2026-05-07 15:47 | 39.55881 | 27.02151 | 53 ft | 22 kts | 53° |
| 2026-05-07 15:47 | 39.55958 | 27.02286 | 57 ft | 14 kts | 52° |
| 2026-05-07 15:48 | 39.56045 | 27.02341 | 59 ft | 13 kts | 33° |
| 2026-05-07 15:48 | 39.56041 | 27.02398 | 54 ft | 5 kts | 155° |
| 2026-05-07 15:48 | 39.56016 | 27.02389 | 58 ft | 3 kts | 221° |
| 2026-05-07 15:48 | 39.56004 | 27.02367 | 54 ft | 0 kts | 233° |
| 2026-05-07 15:49 | 39.56003 | 27.02366 | 53 ft | 2 kts | 233° |
| 2026-05-07 15:49 | 39.55916 | 27.02212 | 55 ft | 55 kts | 234° |
| 2026-05-07 15:50 | 39.55556 | 27.01576 | 53 ft | 117 kts | 234° |
| 2026-05-07 15:50 | 39.54978 | 27.00557 | 49 ft | 162 kts | 233° |
| 2026-05-07 15:50 | 39.54279 | 26.99341 | 472 ft | 168 kts | 234° |
| 2026-05-07 15:50 | 39.53584 | 26.98126 | 1102 ft | 167 kts | 234° |
| 2026-05-07 15:51 | 39.52879 | 26.96878 | 1504 ft | 179 kts | 234° |
| 2026-05-07 15:51 | 39.52099 | 26.95492 | 1673 ft | 202 kts | 234° |
| 2026-05-07 15:51 | 39.51260 | 26.94001 | 2036 ft | 211 kts | 234° |
| 2026-05-07 15:51 | 39.50388 | 26.92455 | 2595 ft | 213 kts | 234° |
| 2026-05-07 15:52 | 39.49513 | 26.90909 | 3254 ft | 213 kts | 234° |
| 2026-05-07 15:52 | 39.48635 | 26.89364 | 3870 ft | 214 kts | 234° |
| 2026-05-07 15:52 | 39.47749 | 26.87808 | 4482 ft | 216 kts | 234° |
| 2026-05-07 15:52 | 39.46852 | 26.86231 | 5063 ft | 218 kts | 233° |
| 2026-05-07 15:53 | 39.45952 | 26.84646 | 5665 ft | 220 kts | 234° |
| 2026-05-07 15:53 | 39.45031 | 26.83058 | 6269 ft | 221 kts | 229° |
| 2026-05-07 15:53 | 39.43745 | 26.81969 | 6779 ft | 228 kts | 197° |
| 2026-05-07 15:53 | 39.42122 | 26.81990 | 7001 ft | 249 kts | 163° |
| 2026-05-07 15:54 | 39.40584 | 26.83117 | 7004 ft | 258 kts | 148° |
| 2026-05-07 15:54 | 39.39146 | 26.84463 | 7007 ft | 259 kts | 145° |
| 2026-05-07 15:54 | 39.37706 | 26.85879 | 7003 ft | 260 kts | 145° |
| 2026-05-07 15:54 | 39.36338 | 26.87397 | 6999 ft | 261 kts | 129° |
| 2026-05-07 15:55 | 39.35591 | 26.89519 | 7005 ft | 263 kts | 97° |
| 2026-05-07 15:55 | 39.35775 | 26.91898 | 7117 ft | 279 kts | 66° |
| 2026-05-07 15:55 | 39.36808 | 26.94063 | 7659 ft | 287 kts | 53° |
| 2026-05-07 15:55 | 39.37990 | 26.96176 | 7944 ft | 291 kts | 53° |
| 2026-05-07 15:56 | 39.39187 | 26.98277 | 8005 ft | 290 kts | 52° |
| 2026-05-07 15:56 | 39.40384 | 27.00370 | 8007 ft | 289 kts | 52° |
| 2026-05-07 15:56 | 39.41579 | 27.02462 | 8009 ft | 289 kts | 52° |
| 2026-05-07 15:56 | 39.42772 | 27.04557 | 8009 ft | 289 kts | 52° |
| 2026-05-07 15:57 | 39.43947 | 27.06623 | 8009 ft | 289 kts | 53° |
| 2026-05-07 15:57 | 39.45080 | 27.08765 | 8007 ft | 289 kts | 61° |
| 2026-05-07 15:57 | 39.45931 | 27.11160 | 8466 ft | 294 kts | 65° |
| 2026-05-07 15:57 | 39.46767 | 27.13575 | 9304 ft | 295 kts | 65° |
| 2026-05-07 15:58 | 39.47621 | 27.16006 | 10065 ft | 298 kts | 64° |
| 2026-05-07 15:58 | 39.48303 | 27.18608 | 10382 ft | 318 kts | 82° |
| 2026-05-07 15:58 | 39.48214 | 27.21569 | 10532 ft | 342 kts | 100° |
| 2026-05-07 15:58 | 39.47529 | 27.24618 | 10651 ft | 364 kts | 111° |
| 2026-05-07 15:59 | 39.46356 | 27.27611 | 10890 ft | 380 kts | 123° |
| 2026-05-07 15:59 | 39.44753 | 27.30372 | 11388 ft | 387 kts | 129° |
| 2026-05-07 15:59 | 39.43079 | 27.33060 | 11978 ft | 391 kts | 129° |
| 2026-05-07 15:59 | 39.41353 | 27.35804 | 12598 ft | 395 kts | 130° |
| 2026-05-07 16:00 | 39.39600 | 27.38563 | 13211 ft | 399 kts | 130° |
| 2026-05-07 16:00 | 39.37822 | 27.41343 | 13797 ft | 403 kts | 130° |
| 2026-05-07 16:00 | 39.36022 | 27.44151 | 14318 ft | 408 kts | 130° |
| 2026-05-07 16:00 | 39.34205 | 27.46989 | 14830 ft | 412 kts | 130° |
| 2026-05-07 16:01 | 39.32370 | 27.49852 | 15329 ft | 416 kts | 130° |
| 2026-05-07 16:01 | 39.30515 | 27.52736 | 15802 ft | 419 kts | 130° |
| 2026-05-07 16:01 | 39.28642 | 27.55644 | 16288 ft | 423 kts | 130° |
| 2026-05-07 16:01 | 39.26753 | 27.58570 | 16788 ft | 426 kts | 130° |
| 2026-05-07 16:02 | 39.24845 | 27.61525 | 17289 ft | 430 kts | 130° |
| 2026-05-07 16:02 | 39.22923 | 27.64499 | 17741 ft | 434 kts | 130° |
| 2026-05-07 16:02 | 39.21013 | 27.67464 | 18222 ft | 437 kts | 130° |
| 2026-05-07 16:02 | 39.19063 | 27.70493 | 18659 ft | 441 kts | 130° |
| 2026-05-07 16:03 | 39.17098 | 27.73542 | 19083 ft | 443 kts | 130° |
| 2026-05-07 16:03 | 39.15119 | 27.76607 | 19499 ft | 446 kts | 130° |
| 2026-05-07 16:03 | 39.13125 | 27.79686 | 19918 ft | 449 kts | 130° |
| 2026-05-07 16:03 | 39.11120 | 27.82772 | 20360 ft | 451 kts | 130° |
| 2026-05-07 16:04 | 39.09096 | 27.85877 | 20782 ft | 453 kts | 130° |
| 2026-05-07 16:04 | 39.07063 | 27.88997 | 21201 ft | 456 kts | 130° |
| 2026-05-07 16:04 | 39.05024 | 27.92132 | 21625 ft | 458 kts | 130° |
| 2026-05-07 16:04 | 39.03001 | 27.95247 | 22019 ft | 461 kts | 130° |
| 2026-05-07 16:05 | 39.00937 | 27.98419 | 22445 ft | 464 kts | 130° |
| 2026-05-07 16:05 | 38.98861 | 28.01607 | 22855 ft | 466 kts | 131° |
| 2026-05-07 16:05 | 38.96771 | 28.04809 | 23248 ft | 469 kts | 131° |
| 2026-05-07 16:05 | 38.94668 | 28.08024 | 23648 ft | 471 kts | 130° |
| 2026-05-07 16:06 | 38.92549 | 28.11254 | 23931 ft | 475 kts | 130° |
| 2026-05-07 16:06 | 38.90413 | 28.14511 | 24233 ft | 478 kts | 130° |
| 2026-05-07 16:06 | 38.88267 | 28.17786 | 24561 ft | 480 kts | 130° |
| 2026-05-07 16:06 | 38.86839 | 28.19964 | 24774 ft | 482 kts | 130° |
| 2026-05-07 16:07 | 38.83973 | 28.24328 | 25170 ft | 485 kts | 130° |
| 2026-05-07 16:07 | 38.81794 | 28.27641 | 25467 ft | 487 kts | 130° |
| 2026-05-07 16:07 | 38.79606 | 28.30968 | 25766 ft | 489 kts | 130° |
| 2026-05-07 16:07 | 38.77408 | 28.34302 | 26082 ft | 491 kts | 131° |
| 2026-05-07 16:08 | 38.75197 | 28.37651 | 26390 ft | 493 kts | 130° |
| 2026-05-07 16:08 | 38.72975 | 28.41017 | 26694 ft | 495 kts | 130° |
| 2026-05-07 16:08 | 38.71502 | 28.43248 | 26912 ft | 496 kts | 130° |
| 2026-05-07 16:08 | 38.69270 | 28.46624 | 27200 ft | 498 kts | 130° |
| 2026-05-07 16:09 | 38.67027 | 28.50012 | 27525 ft | 499 kts | 130° |
| 2026-05-07 16:09 | 38.64786 | 28.53391 | 27936 ft | 497 kts | 131° |
| 2026-05-07 16:09 | 38.62097 | 28.58120 | 28466 ft | 497 kts | 120° |
| 2026-05-07 16:09 | 38.60624 | 28.62104 | 28847 ft | 495 kts | 109° |
| 2026-05-07 16:10 | 38.59927 | 28.64936 | 29099 ft | 494 kts | 103° |
| 2026-05-07 16:10 | 38.59349 | 28.69251 | 29480 ft | 491 kts | 92° |
| 2026-05-07 16:10 | 38.59312 | 28.73539 | 29860 ft | 487 kts | 83° |
| 2026-05-07 16:10 | 38.59712 | 28.77821 | 30219 ft | 485 kts | 79° |
| 2026-05-07 16:11 | 38.60156 | 28.82096 | 30538 ft | 485 kts | 80° |
| 2026-05-07 16:11 | 38.60592 | 28.86369 | 30858 ft | 485 kts | 80° |
| 2026-05-07 16:11 | 38.61022 | 28.90641 | 31175 ft | 484 kts | 80° |
| 2026-05-07 16:11 | 38.61449 | 28.94913 | 31498 ft | 484 kts | 80° |
| 2026-05-07 16:12 | 38.61875 | 28.99184 | 31826 ft | 484 kts | 79° |
| 2026-05-07 16:12 | 38.62299 | 29.03455 | 32159 ft | 484 kts | 79° |
| 2026-05-07 16:12 | 38.62717 | 29.07724 | 32492 ft | 484 kts | 79° |
| 2026-05-07 16:12 | 38.63136 | 29.11990 | 32825 ft | 483 kts | 79° |
| 2026-05-07 16:13 | 38.63557 | 29.16250 | 33158 ft | 483 kts | 79° |
| 2026-05-07 16:13 | 38.63978 | 29.20503 | 33477 ft | 483 kts | 79° |
| 2026-05-07 16:13 | 38.64391 | 29.24704 | 33796 ft | 482 kts | 79° |
| 2026-05-07 16:13 | 38.64806 | 29.28959 | 34152 ft | 481 kts | 79° |
| 2026-05-07 16:14 | 38.65219 | 29.33203 | 34451 ft | 480 kts | 79° |
| 2026-05-07 16:14 | 38.65631 | 29.37442 | 34743 ft | 480 kts | 79° |
| 2026-05-07 16:14 | 38.66042 | 29.41676 | 35025 ft | 479 kts | 79° |
| 2026-05-07 16:14 | 38.66450 | 29.45912 | 35145 ft | 479 kts | 79° |
| 2026-05-07 16:15 | 38.66883 | 29.50134 | 35175 ft | 478 kts | 78° |
| 2026-05-07 16:15 | 38.67931 | 29.58506 | 35160 ft | 476 kts | 75° |
| 2026-05-07 16:16 | 38.69057 | 29.66792 | 35168 ft | 476 kts | 75° |
| 2026-05-07 16:16 | 38.70155 | 29.75145 | 35169 ft | 476 kts | 76° |
| 2026-05-07 16:17 | 38.71198 | 29.83514 | 35186 ft | 476 kts | 76° |
| 2026-05-07 16:17 | 38.72226 | 29.91890 | 35166 ft | 476 kts | 76° |
| 2026-05-07 16:18 | 38.73257 | 30.00267 | 35166 ft | 476 kts | 76° |
| 2026-05-07 16:18 | 38.74342 | 30.08634 | 35162 ft | 476 kts | 75° |
| 2026-05-07 16:19 | 38.75477 | 30.16988 | 35178 ft | 476 kts | 75° |
| 2026-05-07 16:19 | 38.76590 | 30.25286 | 35176 ft | 476 kts | 75° |
| 2026-05-07 16:20 | 38.77687 | 30.33640 | 35177 ft | 476 kts | 75° |
| 2026-05-07 16:20 | 38.78779 | 30.41999 | 35187 ft | 475 kts | 75° |
| 2026-05-07 16:21 | 38.79858 | 30.50356 | 35188 ft | 475 kts | 75° |
| 2026-05-07 16:21 | 38.81628 | 30.58324 | 35188 ft | 463 kts | 60° |
| 2026-05-07 16:22 | 38.84173 | 30.65898 | 35180 ft | 463 kts | 60° |
| 2026-05-07 16:22 | 38.86701 | 30.73495 | 35179 ft | 463 kts | 60° |
| 2026-05-07 16:23 | 38.89219 | 30.81104 | 35179 ft | 463 kts | 61° |
| 2026-05-07 16:23 | 38.91731 | 30.88720 | 35189 ft | 463 kts | 60° |
| 2026-05-07 16:24 | 38.94230 | 30.96285 | 35200 ft | 463 kts | 60° |
| 2026-05-07 16:24 | 38.96739 | 31.03912 | 35179 ft | 463 kts | 60° |
| 2026-05-07 16:25 | 38.99240 | 31.11547 | 35185 ft | 463 kts | 60° |
| 2026-05-07 16:25 | 39.01748 | 31.19177 | 35192 ft | 463 kts | 60° |
| 2026-05-07 16:26 | 39.04248 | 31.26811 | 35205 ft | 463 kts | 60° |
| 2026-05-07 16:26 | 39.06714 | 31.34396 | 35202 ft | 462 kts | 60° |
| 2026-05-07 16:27 | 39.09182 | 31.42025 | 35199 ft | 462 kts | 60° |
| 2026-05-07 16:27 | 39.11646 | 31.49656 | 35204 ft | 461 kts | 60° |
| 2026-05-07 16:28 | 39.14114 | 31.57276 | 35213 ft | 461 kts | 60° |
| 2026-05-07 16:28 | 39.16575 | 31.64891 | 35215 ft | 460 kts | 60° |
| 2026-05-07 16:29 | 39.19022 | 31.72507 | 35199 ft | 460 kts | 60° |
| 2026-05-07 16:29 | 39.21461 | 31.80130 | 35210 ft | 460 kts | 60° |
| 2026-05-07 16:30 | 39.23875 | 31.87707 | 35205 ft | 460 kts | 60° |
| 2026-05-07 16:30 | 39.26302 | 31.95336 | 35196 ft | 459 kts | 60° |
| 2026-05-07 16:31 | 39.28721 | 32.02964 | 35195 ft | 459 kts | 60° |
| 2026-05-07 16:31 | 39.31143 | 32.10599 | 35198 ft | 459 kts | 61° |
| 2026-05-07 16:32 | 39.33555 | 32.18244 | 35197 ft | 460 kts | 61° |
| 2026-05-07 16:32 | 39.35946 | 32.25845 | 35194 ft | 460 kts | 61° |
| 2026-05-07 16:33 | 39.38346 | 32.33502 | 35194 ft | 460 kts | 61° |
| 2026-05-07 16:33 | 39.40725 | 32.41180 | 35206 ft | 460 kts | 62° |
| 2026-05-07 16:34 | 39.42835 | 32.49021 | 35204 ft | 467 kts | 72° |
| 2026-05-07 16:34 | 39.43268 | 32.57486 | 35195 ft | 479 kts | 90° |
| 2026-05-07 16:35 | 39.42730 | 32.66085 | 35194 ft | 480 kts | 90° |
| 2026-05-07 16:35 | 39.42204 | 32.74687 | 35191 ft | 480 kts | 90° |
| 2026-05-07 16:36 | 39.41677 | 32.83242 | 35189 ft | 480 kts | 90° |
| 2026-05-07 16:36 | 39.41142 | 32.91857 | 35200 ft | 481 kts | 90° |
| 2026-05-07 16:37 | 39.40597 | 33.00477 | 35195 ft | 481 kts | 90° |
| 2026-05-07 16:37 | 39.40032 | 33.09089 | 35192 ft | 481 kts | 90° |
| 2026-05-07 16:38 | 39.39464 | 33.17702 | 35204 ft | 481 kts | 90° |
| 2026-05-07 16:38 | 39.38892 | 33.26317 | 35189 ft | 481 kts | 90° |
| 2026-05-07 16:39 | 39.38305 | 33.34936 | 35184 ft | 481 kts | 90° |
| 2026-05-07 16:39 | 39.37679 | 33.43556 | 35183 ft | 482 kts | 91° |
| 2026-05-07 16:40 | 39.36972 | 33.52124 | 35179 ft | 483 kts | 91° |
| 2026-05-07 16:40 | 39.36248 | 33.60750 | 35179 ft | 483 kts | 91° |
| 2026-05-07 16:41 | 39.35535 | 33.69376 | 35191 ft | 483 kts | 91° |
| 2026-05-07 16:41 | 39.34825 | 33.78004 | 35188 ft | 483 kts | 91° |
| 2026-05-07 16:42 | 39.34110 | 33.86636 | 35199 ft | 483 kts | 91° |
| 2026-05-07 16:42 | 39.33384 | 33.95265 | 35196 ft | 483 kts | 91° |
| 2026-05-07 16:43 | 39.32676 | 34.03831 | 35207 ft | 483 kts | 91° |
| 2026-05-07 16:43 | 39.32005 | 34.12457 | 35201 ft | 482 kts | 91° |
| 2026-05-07 16:44 | 39.31339 | 34.21081 | 35198 ft | 483 kts | 91° |
| 2026-05-07 16:44 | 39.30658 | 34.29699 | 35203 ft | 483 kts | 91° |
| 2026-05-07 16:45 | 39.29964 | 34.38317 | 35194 ft | 483 kts | 91° |
| 2026-05-07 16:45 | 39.29261 | 34.46879 | 35182 ft | 483 kts | 91° |
| 2026-05-07 16:46 | 39.28551 | 34.55501 | 35197 ft | 483 kts | 91° |
| 2026-05-07 16:46 | 39.27837 | 34.64121 | 35196 ft | 483 kts | 91° |
| 2026-05-07 16:47 | 39.27117 | 34.72745 | 35187 ft | 483 kts | 92° |
| 2026-05-07 16:47 | 39.26390 | 34.81363 | 35195 ft | 483 kts | 92° |
| 2026-05-07 16:48 | 39.25651 | 34.89972 | 35194 ft | 483 kts | 92° |
| 2026-05-07 16:48 | 39.24913 | 34.98516 | 35191 ft | 483 kts | 92° |
| 2026-05-07 16:49 | 39.24168 | 35.07122 | 35190 ft | 483 kts | 92° |
| 2026-05-07 16:49 | 39.23418 | 35.15729 | 35199 ft | 483 kts | 92° |
| 2026-05-07 16:50 | 39.22659 | 35.24332 | 35196 ft | 483 kts | 92° |
| 2026-05-07 16:50 | 39.21891 | 35.32929 | 35211 ft | 483 kts | 92° |
| 2026-05-07 16:51 | 39.21115 | 35.41466 | 35213 ft | 482 kts | 93° |
| 2026-05-07 16:51 | 39.20331 | 35.50054 | 35210 ft | 482 kts | 93° |
| 2026-05-07 16:52 | 39.19549 | 35.58636 | 35221 ft | 482 kts | 93° |
| 2026-05-07 16:52 | 39.18760 | 35.67206 | 35219 ft | 481 kts | 93° |
| 2026-05-07 16:53 | 39.17949 | 35.75771 | 35214 ft | 481 kts | 93° |
| 2026-05-07 16:53 | 39.17145 | 35.84272 | 35212 ft | 481 kts | 93° |
| 2026-05-07 16:54 | 39.16342 | 35.92824 | 35216 ft | 481 kts | 93° |
| 2026-05-07 16:54 | 39.15522 | 36.01372 | 35210 ft | 481 kts | 93° |
| 2026-05-07 16:55 | 39.14587 | 36.09906 | 35214 ft | 481 kts | 95° |
| 2026-05-07 16:55 | 39.13476 | 36.18355 | 35206 ft | 482 kts | 96° |
| 2026-05-07 16:56 | 39.12330 | 36.26860 | 35203 ft | 482 kts | 96° |
| 2026-05-07 16:56 | 39.10690 | 36.39616 | 35198 ft | 481 kts | 96° |
| 2026-05-07 16:57 | 39.09794 | 36.46679 | 35195 ft | 481 kts | 96° |
| 2026-05-07 16:57 | 39.08514 | 36.56602 | 35203 ft | 481 kts | 96° |
| 2026-05-07 16:58 | 39.07406 | 36.65035 | 35197 ft | 481 kts | 96° |
| 2026-05-07 16:58 | 39.06289 | 36.73528 | 35195 ft | 481 kts | 96° |
| 2026-05-07 16:59 | 39.05169 | 36.82018 | 35192 ft | 482 kts | 96° |
| 2026-05-07 16:59 | 39.04041 | 36.90513 | 35199 ft | 482 kts | 96° |
| 2026-05-07 17:00 | 39.02904 | 36.99007 | 35191 ft | 482 kts | 96° |
| 2026-05-07 17:00 | 39.01774 | 37.07450 | 35190 ft | 482 kts | 96° |
| 2026-05-07 17:01 | 39.00629 | 37.15946 | 35186 ft | 483 kts | 96° |
| 2026-05-07 17:01 | 38.99471 | 37.24444 | 35186 ft | 482 kts | 96° |
| 2026-05-07 17:02 | 38.98308 | 37.32936 | 35183 ft | 482 kts | 96° |
| 2026-05-07 17:02 | 38.97140 | 37.41420 | 35174 ft | 482 kts | 96° |
| 2026-05-07 17:03 | 38.95965 | 37.49899 | 35159 ft | 482 kts | 96° |
| 2026-05-07 17:03 | 38.94793 | 37.58312 | 35167 ft | 482 kts | 97° |
| 2026-05-07 17:04 | 38.93611 | 37.66774 | 35183 ft | 481 kts | 97° |
| 2026-05-07 17:04 | 38.92425 | 37.75216 | 35173 ft | 480 kts | 97° |
| 2026-05-07 17:05 | 38.91223 | 37.83641 | 35164 ft | 479 kts | 97° |
| 2026-05-07 17:05 | 38.90035 | 37.92049 | 35152 ft | 479 kts | 97° |
| 2026-05-07 17:06 | 38.88846 | 38.00459 | 35144 ft | 479 kts | 98° |
| 2026-05-07 17:06 | 38.87648 | 38.08805 | 35140 ft | 479 kts | 98° |
| 2026-05-07 17:07 | 38.86429 | 38.17200 | 35137 ft | 478 kts | 98° |
| 2026-05-07 17:07 | 38.85210 | 38.25591 | 35123 ft | 479 kts | 98° |
| 2026-05-07 17:08 | 38.83984 | 38.33987 | 35122 ft | 479 kts | 98° |
| 2026-05-07 17:08 | 38.82745 | 38.42383 | 35112 ft | 479 kts | 98° |
| 2026-05-07 17:09 | 38.81516 | 38.50722 | 35127 ft | 479 kts | 99° |
| 2026-05-07 17:09 | 38.80276 | 38.59119 | 35120 ft | 479 kts | 99° |
| 2026-05-07 17:10 | 38.79030 | 38.67513 | 35115 ft | 480 kts | 99° |
| 2026-05-07 17:10 | 38.77768 | 38.75913 | 35115 ft | 480 kts | 99° |
| 2026-05-07 17:11 | 38.76504 | 38.84315 | 35115 ft | 480 kts | 100° |
| 2026-05-07 17:11 | 38.75246 | 38.92664 | 35112 ft | 481 kts | 100° |
| 2026-05-07 17:12 | 38.73993 | 39.01082 | 35117 ft | 481 kts | 100° |
| 2026-05-07 17:12 | 38.72748 | 39.09511 | 35122 ft | 482 kts | 100° |
| 2026-05-07 17:13 | 38.71493 | 39.17946 | 35123 ft | 482 kts | 100° |
| 2026-05-07 17:13 | 38.70253 | 39.26387 | 35132 ft | 482 kts | 99° |
| 2026-05-07 17:14 | 38.69176 | 39.34863 | 35127 ft | 482 kts | 98° |
| 2026-05-07 17:14 | 38.68158 | 39.43289 | 35126 ft | 483 kts | 98° |
| 2026-05-07 17:15 | 38.67091 | 39.51769 | 35127 ft | 483 kts | 99° |
| 2026-05-07 17:15 | 38.65993 | 39.60241 | 35127 ft | 483 kts | 99° |
| 2026-05-07 17:16 | 38.64887 | 39.68703 | 35121 ft | 482 kts | 99° |
| 2026-05-07 17:16 | 38.63771 | 39.77164 | 35114 ft | 482 kts | 100° |
| 2026-05-07 17:17 | 38.62654 | 39.85626 | 35108 ft | 483 kts | 100° |
| 2026-05-07 17:17 | 38.61543 | 39.94036 | 35115 ft | 483 kts | 100° |
| 2026-05-07 17:18 | 38.60415 | 40.02499 | 35113 ft | 483 kts | 100° |
| 2026-05-07 17:18 | 38.59283 | 40.10956 | 35103 ft | 483 kts | 101° |
| 2026-05-07 17:19 | 38.58144 | 40.19417 | 35105 ft | 483 kts | 101° |
| 2026-05-07 17:19 | 38.57005 | 40.27823 | 35111 ft | 483 kts | 101° |
| 2026-05-07 17:20 | 38.55850 | 40.36287 | 35111 ft | 484 kts | 101° |
| 2026-05-07 17:20 | 38.54695 | 40.44747 | 35106 ft | 484 kts | 101° |
| 2026-05-07 17:21 | 38.53590 | 40.53233 | 35112 ft | 485 kts | 101° |
| 2026-05-07 17:21 | 38.52509 | 40.61735 | 35111 ft | 485 kts | 101° |
| 2026-05-07 17:22 | 38.51413 | 40.70237 | 35119 ft | 485 kts | 101° |
| 2026-05-07 17:22 | 38.50302 | 40.78680 | 35115 ft | 486 kts | 102° |
| 2026-05-07 17:23 | 38.49172 | 40.87181 | 35114 ft | 486 kts | 102° |
| 2026-05-07 17:23 | 38.48033 | 40.95693 | 35117 ft | 487 kts | 102° |
| 2026-05-07 17:24 | 38.46893 | 41.04208 | 35121 ft | 487 kts | 102° |
| 2026-05-07 17:24 | 38.45731 | 41.12721 | 35106 ft | 487 kts | 103° |
| 2026-05-07 17:25 | 38.44459 | 41.21213 | 35111 ft | 487 kts | 104° |
| 2026-05-07 17:25 | 38.43155 | 41.29636 | 35114 ft | 488 kts | 104° |
| 2026-05-07 17:26 | 38.41860 | 41.38131 | 35112 ft | 488 kts | 104° |
| 2026-05-07 17:26 | 38.40582 | 41.46632 | 35113 ft | 488 kts | 104° |
| 2026-05-07 17:27 | 38.39291 | 41.55138 | 35113 ft | 489 kts | 104° |
| 2026-05-07 17:27 | 38.37991 | 41.63632 | 35123 ft | 489 kts | 104° |
| 2026-05-07 17:28 | 38.36677 | 41.72133 | 35107 ft | 489 kts | 105° |
| 2026-05-07 17:28 | 38.35363 | 41.80590 | 35115 ft | 490 kts | 105° |
| 2026-05-07 17:29 | 38.34055 | 41.89121 | 35125 ft | 491 kts | 105° |
| 2026-05-07 17:29 | 38.32787 | 41.97672 | 35130 ft | 491 kts | 104° |
| 2026-05-07 17:30 | 38.31517 | 42.06214 | 35114 ft | 492 kts | 105° |
| 2026-05-07 17:30 | 38.30233 | 42.14768 | 35125 ft | 492 kts | 105° |
| 2026-05-07 17:31 | 38.28925 | 42.23322 | 35135 ft | 492 kts | 105° |
| 2026-05-07 17:31 | 38.27624 | 42.31817 | 35139 ft | 493 kts | 105° |
| 2026-05-07 17:32 | 38.26311 | 42.40374 | 35129 ft | 493 kts | 106° |
| 2026-05-07 17:32 | 38.25203 | 42.47488 | 35139 ft | 494 kts | 106° |
| 2026-05-07 17:33 | 38.23636 | 42.57506 | 35142 ft | 494 kts | 106° |
| 2026-05-07 17:33 | 38.22293 | 42.66074 | 35154 ft | 494 kts | 106° |
| 2026-05-07 17:34 | 38.20949 | 42.74642 | 35161 ft | 494 kts | 106° |
| 2026-05-07 17:34 | 38.19612 | 42.83144 | 35169 ft | 494 kts | 106° |
| 2026-05-07 17:35 | 38.18255 | 42.91703 | 35168 ft | 494 kts | 106° |
| 2026-05-07 17:35 | 38.16890 | 43.00253 | 35151 ft | 494 kts | 107° |
| 2026-05-07 17:36 | 38.15528 | 43.08803 | 35157 ft | 494 kts | 107° |
| 2026-05-07 17:36 | 38.14162 | 43.17303 | 35166 ft | 495 kts | 107° |
| 2026-05-07 17:37 | 38.12782 | 43.25863 | 35172 ft | 495 kts | 107° |
| 2026-05-07 17:37 | 38.11368 | 43.34412 | 35160 ft | 493 kts | 110° |
| 2026-05-07 17:38 | 38.08959 | 43.42422 | 35168 ft | 483 kts | 121° |
| 2026-05-07 17:38 | 38.06207 | 43.50198 | 35171 ft | 483 kts | 121° |
| 2026-05-07 17:39 | 38.03918 | 43.56659 | 35141 ft | 483 kts | 121° |
| 2026-05-07 17:39 | 38.00710 | 43.65689 | 35147 ft | 483 kts | 121° |
| 2026-05-07 17:40 | 37.97955 | 43.73459 | 35154 ft | 483 kts | 121° |
| 2026-05-07 17:40 | 37.95198 | 43.81226 | 35139 ft | 483 kts | 122° |
| 2026-05-07 17:41 | 37.92895 | 43.87661 | 35144 ft | 483 kts | 122° |
| 2026-05-07 17:41 | 37.90113 | 43.95392 | 35141 ft | 482 kts | 122° |
| 2026-05-07 17:42 | 37.86881 | 44.04377 | 35119 ft | 482 kts | 122° |
| 2026-05-07 17:42 | 37.84550 | 44.10850 | 35128 ft | 483 kts | 122° |
| 2026-05-07 17:43 | 37.81761 | 44.18576 | 35138 ft | 483 kts | 122° |
| 2026-05-07 17:43 | 37.78967 | 44.26292 | 35115 ft | 482 kts | 122° |
| 2026-05-07 17:44 | 37.76189 | 44.33940 | 35122 ft | 482 kts | 122° |
| 2026-05-07 17:44 | 37.73600 | 44.41786 | 35126 ft | 491 kts | 112° |
| 2026-05-07 17:45 | 37.72356 | 44.50366 | 35126 ft | 499 kts | 105° |
| 2026-05-07 17:45 | 37.71292 | 44.59022 | 35105 ft | 498 kts | 105° |
| 2026-05-07 17:46 | 37.70599 | 44.67768 | 35092 ft | 503 kts | 99° |
| 2026-05-07 17:46 | 37.70206 | 44.76542 | 35099 ft | 504 kts | 99° |
| 2026-05-07 17:47 | 37.69806 | 44.85379 | 35085 ft | 504 kts | 99° |
| 2026-05-07 17:47 | 37.69393 | 44.94213 | 35066 ft | 504 kts | 99° |
| 2026-05-07 17:48 | 37.68980 | 45.03042 | 35045 ft | 504 kts | 99° |
| 2026-05-07 17:48 | 37.67878 | 45.11651 | 35045 ft | 490 kts | 115° |
| 2026-05-07 17:49 | 37.65731 | 45.19781 | 35048 ft | 488 kts | 116° |
| 2026-05-07 17:49 | 37.63603 | 45.27860 | 35028 ft | 488 kts | 116° |
| 2026-05-07 17:50 | 37.61456 | 45.35986 | 35034 ft | 488 kts | 116° |
| 2026-05-07 17:50 | 37.59297 | 45.44105 | 35034 ft | 488 kts | 116° |
| 2026-05-07 17:51 | 37.57138 | 45.52220 | 35039 ft | 488 kts | 116° |
| 2026-05-07 17:51 | 37.55000 | 45.60282 | 35040 ft | 488 kts | 116° |
| 2026-05-07 17:52 | 37.52832 | 45.68385 | 35041 ft | 488 kts | 116° |
| 2026-05-07 17:52 | 37.50662 | 45.76477 | 35025 ft | 488 kts | 116° |
| 2026-05-07 17:53 | 37.48495 | 45.84573 | 35037 ft | 488 kts | 116° |
| 2026-05-07 17:53 | 37.46313 | 45.92653 | 35057 ft | 487 kts | 116° |
| 2026-05-07 17:54 | 37.44124 | 46.00726 | 35051 ft | 487 kts | 116° |
| 2026-05-07 17:54 | 37.41954 | 46.08738 | 35029 ft | 487 kts | 116° |
| 2026-05-07 17:55 | 37.39766 | 46.16809 | 35033 ft | 488 kts | 117° |
| 2026-05-07 17:55 | 37.37572 | 46.24879 | 35040 ft | 488 kts | 117° |
| 2026-05-07 17:56 | 37.35370 | 46.32943 | 35044 ft | 488 kts | 117° |
| 2026-05-07 17:56 | 37.33172 | 46.40942 | 35064 ft | 488 kts | 117° |
| 2026-05-07 17:57 | 37.31311 | 46.47692 | 35085 ft | 488 kts | 117° |
| 2026-05-07 17:57 | 37.28728 | 46.57046 | 35074 ft | 488 kts | 117° |
| 2026-05-07 17:58 | 37.26502 | 46.65087 | 35082 ft | 487 kts | 117° |
| 2026-05-07 17:58 | 37.24274 | 46.73115 | 35087 ft | 487 kts | 117° |
| 2026-05-07 17:59 | 37.22039 | 46.81140 | 35097 ft | 487 kts | 117° |
| 2026-05-07 17:59 | 37.19818 | 46.89107 | 35090 ft | 487 kts | 118° |
| 2026-05-07 18:00 | 37.17580 | 46.97129 | 35094 ft | 487 kts | 118° |
| 2026-05-07 18:00 | 37.15331 | 47.05149 | 35089 ft | 488 kts | 118° |
| 2026-05-07 18:01 | 37.13072 | 47.13166 | 35062 ft | 488 kts | 118° |
| 2026-05-07 18:01 | 37.10808 | 47.21179 | 35065 ft | 488 kts | 118° |
| 2026-05-07 18:02 | 37.07416 | 47.33148 | 35063 ft | 488 kts | 118° |
| 2026-05-07 18:03 | 37.05140 | 47.41164 | 35042 ft | 489 kts | 119° |
| 2026-05-07 18:03 | 37.02854 | 47.49196 | 35021 ft | 490 kts | 119° |
| 2026-05-07 18:04 | 37.00562 | 47.57238 | 35015 ft | 491 kts | 119° |
| 2026-05-07 18:04 | 36.98285 | 47.65233 | 34995 ft | 492 kts | 119° |
| 2026-05-07 18:05 | 36.95979 | 47.73285 | 35001 ft | 493 kts | 120° |
| 2026-05-07 18:05 | 36.93659 | 47.81349 | 35002 ft | 493 kts | 120° |
| 2026-05-07 18:06 | 36.91331 | 47.89425 | 35000 ft | 495 kts | 120° |
| 2026-05-07 18:06 | 36.88987 | 47.97521 | 35012 ft | 496 kts | 120° |
| 2026-05-07 18:07 | 36.86657 | 48.05558 | 35014 ft | 495 kts | 120° |
| 2026-05-07 18:07 | 36.84305 | 48.13653 | 35023 ft | 496 kts | 120° |
| 2026-05-07 18:08 | 36.81960 | 48.21743 | 35037 ft | 496 kts | 120° |
| 2026-05-07 18:08 | 36.79601 | 48.29832 | 35039 ft | 496 kts | 120° |
| 2026-05-07 18:09 | 36.77208 | 48.37829 | 35013 ft | 493 kts | 122° |
| 2026-05-07 18:09 | 36.74501 | 48.45634 | 35021 ft | 489 kts | 125° |
| 2026-05-07 18:10 | 36.71642 | 48.53317 | 35044 ft | 489 kts | 125° |
| 2026-05-07 18:10 | 36.68825 | 48.61039 | 35031 ft | 490 kts | 124° |
| 2026-05-07 18:11 | 36.66071 | 48.68814 | 35054 ft | 491 kts | 124° |
| 2026-05-07 18:11 | 36.63348 | 48.76539 | 35065 ft | 491 kts | 124° |
| 2026-05-07 18:12 | 36.60583 | 48.84302 | 35038 ft | 490 kts | 124° |
| 2026-05-07 18:12 | 36.57808 | 48.92049 | 35050 ft | 489 kts | 125° |
| 2026-05-07 18:13 | 36.55031 | 48.99765 | 35059 ft | 488 kts | 125° |
| 2026-05-07 18:13 | 36.52246 | 49.07471 | 35078 ft | 489 kts | 125° |
| 2026-05-07 18:14 | 36.49452 | 49.15186 | 35059 ft | 490 kts | 125° |
| 2026-05-07 18:14 | 36.46677 | 49.22857 | 35069 ft | 490 kts | 125° |
| 2026-05-07 18:15 | 36.43878 | 49.30570 | 35071 ft | 490 kts | 125° |
| 2026-05-07 18:15 | 36.41065 | 49.38269 | 35060 ft | 490 kts | 125° |
| 2026-05-07 18:16 | 36.38249 | 49.45957 | 35060 ft | 489 kts | 125° |
| 2026-05-07 18:16 | 36.35454 | 49.53595 | 35032 ft | 489 kts | 125° |
| 2026-05-07 18:16 | 36.34043 | 49.57438 | 34773 ft | 490 kts | 126° |
| 2026-05-07 18:17 | 36.32630 | 49.61288 | 34538 ft | 491 kts | 126° |
| 2026-05-07 18:17 | 36.31215 | 49.65143 | 34151 ft | 491 kts | 126° |
| 2026-05-07 18:17 | 36.29797 | 49.68996 | 33714 ft | 491 kts | 126° |
| 2026-05-07 18:17 | 36.28377 | 49.72843 | 33265 ft | 491 kts | 126° |
| 2026-05-07 18:18 | 36.26954 | 49.76687 | 32812 ft | 492 kts | 125° |
| 2026-05-07 18:18 | 36.25525 | 49.80542 | 32376 ft | 493 kts | 125° |
| 2026-05-07 18:18 | 36.24091 | 49.84401 | 31935 ft | 493 kts | 125° |
| 2026-05-07 18:18 | 36.22656 | 49.88261 | 31524 ft | 494 kts | 125° |
| 2026-05-07 18:19 | 36.21219 | 49.92129 | 31101 ft | 494 kts | 124° |
| 2026-05-07 18:19 | 36.19753 | 49.95964 | 30694 ft | 490 kts | 128° |
| 2026-05-07 18:19 | 36.18014 | 49.99463 | 30290 ft | 479 kts | 136° |
| 2026-05-07 18:19 | 36.15982 | 50.02694 | 29847 ft | 475 kts | 139° |
| 2026-05-07 18:20 | 36.13919 | 50.05889 | 29355 ft | 476 kts | 138° |
| 2026-05-07 18:20 | 36.11850 | 50.09101 | 28889 ft | 477 kts | 138° |
| 2026-05-07 18:20 | 36.09785 | 50.12322 | 28434 ft | 478 kts | 137° |
| 2026-05-07 18:20 | 36.07718 | 50.15545 | 27982 ft | 479 kts | 137° |
| 2026-05-07 18:21 | 36.05642 | 50.18774 | 27540 ft | 480 kts | 137° |
| 2026-05-07 18:21 | 36.03560 | 50.22005 | 27088 ft | 481 kts | 137° |
| 2026-05-07 18:21 | 36.01469 | 50.25240 | 26653 ft | 482 kts | 137° |
| 2026-05-07 18:21 | 35.99370 | 50.28478 | 26229 ft | 483 kts | 136° |
| 2026-05-07 18:22 | 35.97268 | 50.31723 | 25809 ft | 484 kts | 136° |
| 2026-05-07 18:22 | 35.95912 | 50.33920 | 25538 ft | 489 kts | 131° |
| 2026-05-07 18:22 | 35.93745 | 50.38873 | 25008 ft | 500 kts | 121° |
| 2026-05-07 18:22 | 35.92277 | 50.42767 | 24619 ft | 501 kts | 121° |
| 2026-05-07 18:23 | 35.90801 | 50.46659 | 24227 ft | 501 kts | 121° |
| 2026-05-07 18:23 | 35.89324 | 50.50540 | 23841 ft | 499 kts | 121° |
| 2026-05-07 18:23 | 35.87854 | 50.54398 | 23435 ft | 496 kts | 121° |
| 2026-05-07 18:23 | 35.86394 | 50.58231 | 22978 ft | 492 kts | 121° |
| 2026-05-07 18:24 | 35.84942 | 50.62039 | 22536 ft | 489 kts | 121° |
| 2026-05-07 18:24 | 35.83522 | 50.65772 | 22091 ft | 466 kts | 121° |
| 2026-05-07 18:24 | 35.82207 | 50.69262 | 21614 ft | 433 kts | 121° |
| 2026-05-07 18:24 | 35.80981 | 50.72515 | 21197 ft | 405 kts | 121° |
| 2026-05-07 18:25 | 35.79839 | 50.75522 | 20743 ft | 383 kts | 122° |
| 2026-05-07 18:25 | 35.78725 | 50.78419 | 20251 ft | 368 kts | 122° |
| 2026-05-07 18:25 | 35.77627 | 50.81234 | 19784 ft | 362 kts | 123° |
| 2026-05-07 18:25 | 35.76300 | 50.83779 | 19308 ft | 346 kts | 139° |
| 2026-05-07 18:26 | 35.74543 | 50.85714 | 18848 ft | 333 kts | 154° |
| 2026-05-07 18:26 | 35.72540 | 50.87018 | 18388 ft | 322 kts | 163° |
| 2026-05-07 18:26 | 35.70497 | 50.88164 | 17818 ft | 321 kts | 162° |
| 2026-05-07 18:26 | 35.68477 | 50.89309 | 17189 ft | 317 kts | 162° |
| 2026-05-07 18:27 | 35.66513 | 50.90435 | 16566 ft | 307 kts | 162° |
| 2026-05-07 18:27 | 35.64610 | 50.91531 | 15977 ft | 298 kts | 162° |
| 2026-05-07 18:27 | 35.62785 | 50.92585 | 15389 ft | 290 kts | 160° |
| 2026-05-07 18:27 | 35.61192 | 50.94081 | 14827 ft | 293 kts | 133° |
| 2026-05-07 18:28 | 35.60428 | 50.96404 | 14257 ft | 299 kts | 98° |
| 2026-05-07 18:28 | 35.60763 | 50.98896 | 13680 ft | 298 kts | 64° |
| 2026-05-07 18:28 | 35.61759 | 51.01103 | 13027 ft | 293 kts | 65° |
| 2026-05-07 18:28 | 35.62192 | 51.03466 | 12583 ft | 278 kts | 95° |
| 2026-05-07 18:29 | 35.61746 | 51.05689 | 12260 ft | 263 kts | 118° |
| 2026-05-07 18:29 | 35.60928 | 51.07661 | 11939 ft | 256 kts | 131° |
| 2026-05-07 18:29 | 35.59623 | 51.09000 | 11581 ft | 239 kts | 162° |
| 2026-05-07 18:29 | 35.58055 | 51.09278 | 11274 ft | 223 kts | 194° |
| 2026-05-07 18:30 | 35.56708 | 51.08485 | 10961 ft | 214 kts | 225° |
| 2026-05-07 18:30 | 35.56003 | 51.06916 | 10654 ft | 214 kts | 257° |
| 2026-05-07 18:30 | 35.56166 | 51.05124 | 10349 ft | 222 kts | 289° |
| 2026-05-07 18:30 | 35.57179 | 51.03669 | 10078 ft | 234 kts | 322° |
| 2026-05-07 18:31 | 35.58750 | 51.03057 | 9864 ft | 243 kts | 348° |
| 2026-05-07 18:31 | 35.60438 | 51.02933 | 9406 ft | 242 kts | 353° |
| 2026-05-07 18:31 | 35.62107 | 51.02865 | 8957 ft | 239 kts | 353° |
| 2026-05-07 18:31 | 35.63747 | 51.02699 | 8508 ft | 232 kts | 340° |
| 2026-05-07 18:32 | 35.65157 | 51.01869 | 8323 ft | 223 kts | 319° |
| 2026-05-07 18:32 | 35.66217 | 51.00533 | 8027 ft | 216 kts | 304° |
| 2026-05-07 18:32 | 35.67110 | 50.99136 | 7719 ft | 205 kts | 304° |
| 2026-05-07 18:32 | 35.67961 | 50.97799 | 7432 ft | 194 kts | 304° |
| 2026-05-07 18:33 | 35.68755 | 50.96543 | 7119 ft | 177 kts | 304° |
| 2026-05-07 18:33 | 35.69473 | 50.95425 | 6857 ft | 158 kts | 304° |
| 2026-05-07 18:33 | 35.70141 | 50.94384 | 6635 ft | 153 kts | 304° |
| 2026-05-07 18:33 | 35.70799 | 50.93356 | 6399 ft | 153 kts | 304° |
| 2026-05-07 18:34 | 35.71453 | 50.92330 | 6169 ft | 152 kts | 304° |
| 2026-05-07 18:34 | 35.72107 | 50.91306 | 5924 ft | 152 kts | 305° |
| 2026-05-07 18:34 | 35.72759 | 50.90281 | 5651 ft | 156 kts | 306° |
| 2026-05-07 18:34 | 35.73439 | 50.89222 | 5398 ft | 159 kts | 307° |
| 2026-05-07 18:35 | 35.74131 | 50.88160 | 5179 ft | 159 kts | 306° |
| 2026-05-07 18:35 | 35.74813 | 50.87106 | 5009 ft | 155 kts | 307° |
| 2026-05-07 18:35 | 35.75449 | 50.86061 | 4796 ft | 150 kts | 307° |
| 2026-05-07 18:35 | 35.76069 | 50.85072 | 4553 ft | 146 kts | 308° |
| 2026-05-07 18:36 | 35.76690 | 50.84097 | 4257 ft | 144 kts | 308° |
| 2026-05-07 18:36 | 35.77271 | 50.83201 | 4171 ft | 112 kts | 308° |
| 2026-05-07 18:36 | 35.77632 | 50.82630 | 4172 ft | 59 kts | 308° |
| 2026-05-07 18:36 | 35.77813 | 50.82352 | 4171 ft | 28 kts | 308° |
| 2026-05-07 18:37 | 35.77890 | 50.82234 | 4172 ft | 8 kts | 311° |
| 2026-05-07 18:37 | 35.77902 | 50.82222 | 4172 ft | 3 kts | 326° |
| 2026-05-07 18:37 | 35.77937 | 50.82185 | 4172 ft | 5 kts | 282° |
| 2026-05-07 18:37 | 35.77914 | 50.82189 | 4172 ft | 7 kts | 131° |
| 2026-05-07 18:38 | 35.77862 | 50.82270 | 4171 ft | 15 kts | 127° |
| 2026-05-07 18:38 | 35.77799 | 50.82372 | 4171 ft | 15 kts | 127° |
| 2026-05-07 18:38 | 35.77739 | 50.82464 | 4171 ft | 13 kts | 128° |
| 2026-05-07 18:38 | 35.77683 | 50.82551 | 4171 ft | 13 kts | 128° |
| 2026-05-07 18:39 | 35.77627 | 50.82637 | 4172 ft | 13 kts | 128° |
| 2026-05-07 18:39 | 35.77572 | 50.82722 | 4173 ft | 12 kts | 128° |
| 2026-05-07 18:39 | 35.77513 | 50.82814 | 4173 ft | 16 kts | 128° |
| 2026-05-07 18:39 | 35.77431 | 50.82943 | 4173 ft | 22 kts | 128° |
| 2026-05-07 18:40 | 35.77326 | 50.83107 | 4171 ft | 27 kts | 128° |
| 2026-05-07 18:40 | 35.77214 | 50.83283 | 4172 ft | 26 kts | 128° |
| 2026-05-07 18:40 | 35.77139 | 50.83398 | 4170 ft | 10 kts | 133° |
| 2026-05-07 18:40 | 35.77077 | 50.83406 | 4170 ft | 10 kts | 207° |
| 2026-05-07 18:41 | 35.77027 | 50.83361 | 4171 ft | 8 kts | 216° |
| 2026-05-07 18:41 | 35.76973 | 50.83321 | 4172 ft | 13 kts | 200° |
| 2026-05-07 18:41 | 35.76888 | 50.83361 | 4172 ft | 14 kts | 131° |
| 2026-05-07 18:41 | 35.76830 | 50.83451 | 4173 ft | 13 kts | 128° |
| 2026-05-07 18:42 | 35.76777 | 50.83533 | 4173 ft | 12 kts | 129° |
| 2026-05-07 18:42 | 35.76729 | 50.83607 | 4174 ft | 11 kts | 129° |
| 2026-05-07 18:42 | 35.76668 | 50.83635 | 4173 ft | 9 kts | 186° |
| 2026-05-07 18:42 | 35.76615 | 50.83602 | 4173 ft | 8 kts | 208° |
| 2026-05-07 18:43 | 35.76568 | 50.83572 | 4173 ft | 5 kts | 208° |
| 2026-05-07 18:43 | 35.76562 | 50.83567 | 4173 ft | 0 kts | 208° |